< < Back
Terminal Aerodrome Forecast


Current Version              Previous Versions:   1  2  3  4  5  6  7  8  9  

Terminal Aerodrome Forecast

350
FTUS42 KTAE 031720
TAFVLD
TAF
KVLD 031720Z 0318/0418 13005KT P6SM SCT040
     FM040100 12004KT P6SM SKC=

Latest METAR

884
SAUS70 KWBC 041000 RRM
MTRVLD
METAR KVLD 040953Z AUTO 00000KT 7SM CLR 12/11 A3020 RMK AO2 SLP235
T01170111 TSNO


USA.gov is the U.S. government's official web portal to all federal, state and local government web resources and services.